createdAt,value
2018-07-13T00:02:42.076Z,20.63
2018-07-13T00:06:06.515Z,20.59
2018-07-13T00:09:30.979Z,20.56
2018-07-13T00:12:55.399Z,20.63
2018-07-13T00:16:19.566Z,20.42
2018-07-13T00:19:44.044Z,20.29
2018-07-13T00:23:08.502Z,20.31
2018-07-13T00:26:32.964Z,20.28
2018-07-13T00:29:57.442Z,20.30
2018-07-13T00:33:21.863Z,20.26
2018-07-13T00:36:46.289Z,20.14
2018-07-13T00:40:10.747Z,20.05
2018-07-13T00:43:35.186Z,20.20
2018-07-13T00:46:59.636Z,20.12
2018-07-13T00:50:24.098Z,20.03
2018-07-13T00:53:48.617Z,19.99
2018-07-13T00:57:13.017Z,20.03
2018-07-13T01:00:37.440Z,19.96
2018-07-13T01:04:01.871Z,19.87
2018-07-13T01:07:26.305Z,19.76
2018-07-13T01:10:50.748Z,19.72
2018-07-13T01:14:15.164Z,19.59
2018-07-13T01:17:39.582Z,19.59
2018-07-13T01:21:04.075Z,19.61
2018-07-13T01:24:28.516Z,19.50
2018-07-13T01:27:52.959Z,19.48
2018-07-13T01:31:17.391Z,19.44
2018-07-13T01:34:41.827Z,19.38
2018-07-13T01:38:06.330Z,19.44
2018-07-13T01:41:30.934Z,19.26
2018-07-13T01:44:55.344Z,19.16
2018-07-13T01:48:19.758Z,19.29
2018-07-13T01:51:44.186Z,19.30
2018-07-13T01:55:08.616Z,19.22
2018-07-13T01:58:33.050Z,19.18
2018-07-13T02:01:57.468Z,19.17
2018-07-13T02:13:27.901Z,18.85
2018-07-13T02:20:52.617Z,18.61
2018-07-13T02:24:33.225Z,18.65
2018-07-13T02:28:20.249Z,18.64
2018-07-13T02:32:11.243Z,18.76
2018-07-13T02:36:00.536Z,18.67
2018-07-13T02:39:45.917Z,18.65
2018-07-13T02:48:38.246Z,18.65
2018-07-13T02:52:22.860Z,18.26
2018-07-13T02:56:17.782Z,18.17
2018-07-13T03:00:01.188Z,18.16
2018-07-13T03:03:41.081Z,18.14
2018-07-13T03:07:16.327Z,18.06
2018-07-13T03:10:58.250Z,18.17
2018-07-13T03:14:48.088Z,17.99
2018-07-13T03:18:27.737Z,18.02
2018-07-13T03:22:16.246Z,17.87
2018-07-13T03:25:57.293Z,17.91
2018-07-13T03:29:50.786Z,17.88
2018-07-13T03:33:21.941Z,17.85
2018-07-13T03:37:04.048Z,18.04
2018-07-13T03:40:49.780Z,17.93
2018-07-13T03:44:43.161Z,17.84
2018-07-13T03:48:58.602Z,17.86
2018-07-13T03:54:11.067Z,17.92
2018-07-13T03:57:57.217Z,17.91
2018-07-13T04:09:35.580Z,17.84
2018-07-13T04:13:19.426Z,17.92
2018-07-13T04:17:05.770Z,17.93
2018-07-13T04:20:51.973Z,17.92
2018-07-13T04:24:34.490Z,18.05
2018-07-13T04:32:14.990Z,17.98
2018-07-13T04:35:56.593Z,18.10
2018-07-13T04:39:41.462Z,18.23
2018-07-13T04:44:27.313Z,18.31
2018-07-13T04:48:06.367Z,18.40
2018-07-13T04:51:31.016Z,18.22
2018-07-13T04:54:55.525Z,18.53
2018-07-13T04:58:19.802Z,18.54
2018-07-13T05:01:44.266Z,18.60
2018-07-13T05:05:09.200Z,18.56
2018-07-13T05:08:33.652Z,18.57
2018-07-13T05:11:58.064Z,18.66
2018-07-13T05:15:22.558Z,18.72
2018-07-13T05:18:46.985Z,18.79
2018-07-13T05:22:11.517Z,18.88
2018-07-13T05:25:36.556Z,18.89
2018-07-13T05:29:01.153Z,19.03
2018-07-13T05:32:25.735Z,19.10
2018-07-13T05:35:50.355Z,19.10
2018-07-13T05:39:14.866Z,19.15
2018-07-13T05:42:39.362Z,19.26
2018-07-13T05:46:03.928Z,19.24
2018-07-13T05:49:29.247Z,19.41
2018-07-13T05:53:18.859Z,19.42
2018-07-13T05:57:02.509Z,19.57
2018-07-13T06:00:27.111Z,19.56
2018-07-13T06:03:51.608Z,19.62
2018-07-13T06:07:16.085Z,19.79
2018-07-13T06:10:40.647Z,19.84
2018-07-13T06:14:05.354Z,20.03
2018-07-13T06:17:29.852Z,20.00
2018-07-13T06:20:54.358Z,20.00
2018-07-13T06:24:18.821Z,20.07
2018-07-13T06:27:43.273Z,19.97
2018-07-13T06:31:07.849Z,20.04
2018-07-13T06:34:32.336Z,20.24
2018-07-13T06:37:56.891Z,20.22
2018-07-13T06:41:21.437Z,20.37
2018-07-13T06:44:46.009Z,20.56
2018-07-13T06:48:11.093Z,20.58
2018-07-13T06:51:35.595Z,20.64
2018-07-13T06:55:00.078Z,20.82
2018-07-13T06:58:41.405Z,20.86
2018-07-13T07:02:05.879Z,20.73
2018-07-13T07:06:36.180Z,20.79
2018-07-13T07:10:00.695Z,20.90
2018-07-13T07:13:33.437Z,20.94
2018-07-13T07:16:57.895Z,21.09
2018-07-13T07:20:22.352Z,21.23
2018-07-13T07:23:46.826Z,21.18
2018-07-13T07:27:11.305Z,21.30
2018-07-13T07:30:35.879Z,21.36
2018-07-13T07:34:00.337Z,21.40
2018-07-13T07:37:24.986Z,21.45
2018-07-13T07:40:49.872Z,21.51
2018-07-13T07:44:14.363Z,21.53
2018-07-13T07:47:38.859Z,21.65
2018-07-13T07:51:03.322Z,21.62
2018-07-13T07:54:27.763Z,21.77
2018-07-13T07:57:52.232Z,21.95
2018-07-13T08:01:16.686Z,22.10
2018-07-13T08:04:41.215Z,22.26
2018-07-13T08:08:05.804Z,22.24
2018-07-13T08:11:30.200Z,22.46
2018-07-13T08:14:54.657Z,22.47
2018-07-13T08:18:19.106Z,22.50
2018-07-13T08:21:45.351Z,22.56
2018-07-13T08:25:14.574Z,22.66
2018-07-13T08:28:39.099Z,22.78
2018-07-13T08:32:03.630Z,22.89
2018-07-13T08:35:28.062Z,23.04
2018-07-13T08:38:52.502Z,23.13
2018-07-13T08:42:16.938Z,23.21
2018-07-13T08:45:41.095Z,23.35
2018-07-13T08:49:05.659Z,23.43
2018-07-13T08:52:30.655Z,23.71
2018-07-13T08:55:55.111Z,23.83
2018-07-13T08:59:19.612Z,23.93
2018-07-13T09:02:44.095Z,24.31
2018-07-13T09:06:08.640Z,24.36
2018-07-13T09:09:33.080Z,24.26
2018-07-13T09:12:57.626Z,24.58
2018-07-13T09:16:22.090Z,24.83
2018-07-13T09:19:46.656Z,24.79
2018-07-13T09:23:11.094Z,24.79
2018-07-13T09:26:35.666Z,25.08
2018-07-13T09:30:00.155Z,25.33
2018-07-13T09:33:24.630Z,25.56
2018-07-13T09:36:49.128Z,25.60
2018-07-13T09:40:13.598Z,25.80
2018-07-13T09:43:38.047Z,25.96
2018-07-13T09:47:02.761Z,25.94
2018-07-13T09:50:27.073Z,26.20
2018-07-13T09:53:51.621Z,26.57
2018-07-13T09:57:16.039Z,26.86
2018-07-13T10:01:48.323Z,27.26
2018-07-13T10:05:12.846Z,27.39
2018-07-13T10:08:37.559Z,27.65
2018-07-13T10:12:02.016Z,27.86
2018-07-13T10:15:26.543Z,28.06
2018-07-13T10:18:51.053Z,28.25
2018-07-13T10:22:19.383Z,28.92
2018-07-13T10:25:52.496Z,29.04
2018-07-13T10:29:22.981Z,29.59
2018-07-13T10:32:47.434Z,29.90
2018-07-13T10:36:17.068Z,30.88
2018-07-13T10:39:41.516Z,31.23
2018-07-13T10:43:07.945Z,32.02
2018-07-13T10:46:32.470Z,33.47
2018-07-13T10:49:56.908Z,34.84
2018-07-13T10:53:21.368Z,35.95
2018-07-13T10:56:45.876Z,36.52
2018-07-13T11:00:10.353Z,39.24
2018-07-13T11:03:35.060Z,39.29
2018-07-13T11:06:59.472Z,41.04
2018-07-13T11:10:23.957Z,41.52
2018-07-13T11:13:49.307Z,42.52
2018-07-13T11:17:13.785Z,42.91
2018-07-13T11:20:38.260Z,41.23
2018-07-13T11:24:02.831Z,42.06
2018-07-13T11:27:27.382Z,43.32
2018-07-13T11:30:51.827Z,43.70
2018-07-13T11:34:16.408Z,44.21
2018-07-13T11:37:40.857Z,43.20
2018-07-13T11:41:05.359Z,42.74
2018-07-13T11:44:29.810Z,43.72
2018-07-13T11:47:54.289Z,44.79
2018-07-13T11:51:18.754Z,44.87
2018-07-13T11:54:43.202Z,44.41
2018-07-13T11:58:07.920Z,44.23
2018-07-13T12:01:32.410Z,43.19
2018-07-13T12:04:56.868Z,45.08
2018-07-13T12:08:21.334Z,46.24
2018-07-13T12:11:45.908Z,47.07
2018-07-13T12:15:10.398Z,45.84
2018-07-13T12:18:34.844Z,43.08
2018-07-13T12:21:59.318Z,41.50
2018-07-13T12:25:23.870Z,40.23
2018-07-13T12:28:48.322Z,38.82
2018-07-13T12:32:12.771Z,38.87
2018-07-13T12:35:37.262Z,39.17
2018-07-13T12:39:01.727Z,39.40
2018-07-13T12:42:26.490Z,40.60
2018-07-13T12:45:50.931Z,41.03
2018-07-13T12:49:15.547Z,41.67
2018-07-13T12:52:39.994Z,43.48
2018-07-13T12:56:04.514Z,44.92
2018-07-13T12:59:29.120Z,45.05
2018-07-13T13:02:53.549Z,46.47
2018-07-13T13:06:18.074Z,45.06
2018-07-13T13:09:43.327Z,46.54
2018-07-13T13:13:07.573Z,45.93
2018-07-13T13:16:32.068Z,46.25
2018-07-13T13:19:56.598Z,46.51
2018-07-13T13:23:21.093Z,47.68
2018-07-13T13:26:45.611Z,48.06
2018-07-13T13:30:10.108Z,47.49
2018-07-13T13:33:34.631Z,49.11
2018-07-13T13:36:59.054Z,47.78
2018-07-13T13:40:23.530Z,47.97
2018-07-13T13:43:47.936Z,47.61
2018-07-13T13:47:12.336Z,47.03
2018-07-13T13:50:36.719Z,46.41
2018-07-13T13:54:01.167Z,46.45
2018-07-13T13:57:25.613Z,45.32
2018-07-13T14:00:50.115Z,45.69
2018-07-13T14:04:14.567Z,45.31
2018-07-13T14:07:38.978Z,44.68
2018-07-13T14:11:03.415Z,44.84
2018-07-13T14:14:27.882Z,44.41
2018-07-13T14:17:52.314Z,44.79
2018-07-13T14:21:16.754Z,45.68
2018-07-13T14:24:41.154Z,44.61
2018-07-13T14:28:05.775Z,45.81
2018-07-13T14:31:30.222Z,43.69
2018-07-13T14:34:54.638Z,43.46
2018-07-13T14:38:19.056Z,45.45
2018-07-13T14:41:43.491Z,45.96
2018-07-13T14:45:07.932Z,46.22
2018-07-13T14:48:32.353Z,44.39
2018-07-13T14:51:56.782Z,44.48
2018-07-13T14:55:21.234Z,44.39
2018-07-13T14:58:45.707Z,44.65
2018-07-13T15:02:10.144Z,45.32
2018-07-13T15:05:34.629Z,45.81
2018-07-13T15:08:59.031Z,45.58
2018-07-13T15:12:23.497Z,45.89
2018-07-13T15:15:47.965Z,46.37
2018-07-13T15:19:12.449Z,48.50
2018-07-13T15:22:36.883Z,46.67
2018-07-13T15:26:01.329Z,46.58
2018-07-13T15:29:25.809Z,47.68
2018-07-13T15:32:50.216Z,49.49
2018-07-13T15:36:14.732Z,50.63
2018-07-13T15:39:39.167Z,48.48
2018-07-13T15:43:03.620Z,48.59
2018-07-13T15:46:28.082Z,47.24
2018-07-13T15:49:52.510Z,48.01
2018-07-13T15:53:17.014Z,49.21
2018-07-13T15:56:41.475Z,49.97
2018-07-13T16:00:05.995Z,48.94
2018-07-13T16:03:37.046Z,49.77
2018-07-13T16:07:01.989Z,47.71
2018-07-13T16:10:26.425Z,46.09
2018-07-13T16:13:51.032Z,46.68
2018-07-13T16:17:15.804Z,47.40
2018-07-13T16:20:40.393Z,48.09
2018-07-13T16:24:04.883Z,48.21
2018-07-13T16:27:29.336Z,48.30
2018-07-13T16:30:53.796Z,47.97
2018-07-13T16:34:18.205Z,45.99
2018-07-13T16:37:42.622Z,45.24
2018-07-13T16:41:07.212Z,43.43
2018-07-13T16:44:31.634Z,41.88
2018-07-13T16:47:56.075Z,41.94
2018-07-13T16:51:20.524Z,42.13
2018-07-13T16:54:44.973Z,41.67
2018-07-13T16:58:09.405Z,41.54
2018-07-13T17:01:33.902Z,40.04
2018-07-13T17:04:58.426Z,39.07
2018-07-13T17:08:22.866Z,37.56
2018-07-13T17:11:47.909Z,37.04
2018-07-13T17:15:12.454Z,36.36
2018-07-13T17:18:37.444Z,35.97
2018-07-13T17:22:02.738Z,35.24
2018-07-13T17:25:27.177Z,35.57
2018-07-13T17:28:51.765Z,35.69
2018-07-13T17:32:16.227Z,35.20
2018-07-13T17:35:40.658Z,34.76
2018-07-13T17:39:06.830Z,33.91
2018-07-13T17:42:32.699Z,33.98
2018-07-13T17:45:57.787Z,33.71
2018-07-13T17:49:23.115Z,33.40
2018-07-13T17:52:48.108Z,33.22
2018-07-13T17:56:12.762Z,32.77
2018-07-13T17:59:37.772Z,32.43
2018-07-13T18:03:02.489Z,31.72
2018-07-13T18:06:27.555Z,31.60
2018-07-13T18:09:52.283Z,31.20
2018-07-13T18:13:17.487Z,30.94
2018-07-13T18:16:42.457Z,31.00
2018-07-13T18:20:07.047Z,30.83
2018-07-13T18:23:31.757Z,30.60
2018-07-13T18:26:56.771Z,30.47
2018-07-13T18:30:21.828Z,30.28
2018-07-13T18:33:47.329Z,30.24
2018-07-13T18:37:12.614Z,29.92
2018-07-13T18:40:38.642Z,29.72
2018-07-13T18:44:03.110Z,29.75
2018-07-13T18:47:27.684Z,29.82
2018-07-13T18:50:52.456Z,29.45
2018-07-13T18:54:17.299Z,29.20
2018-07-13T18:57:42.143Z,29.09
2018-07-13T19:01:06.629Z,28.75
2018-07-13T19:04:32.163Z,28.81
2018-07-13T19:07:57.232Z,28.38
2018-07-13T19:15:03.675Z,28.21
2018-07-13T19:18:36.941Z,27.76
2018-07-13T19:22:09.443Z,27.62
2018-07-13T19:25:37.335Z,27.43
2018-07-13T19:29:02.131Z,27.15
2018-07-13T19:32:26.570Z,26.94
2018-07-13T19:35:52.283Z,27.04
2018-07-13T19:39:18.040Z,26.81
2018-07-13T19:42:44.720Z,26.72
2018-07-13T19:46:11.801Z,26.71
2018-07-13T19:49:37.301Z,26.68
2018-07-13T19:53:02.827Z,26.57
2018-07-13T19:56:27.272Z,26.48
2018-07-13T20:00:08.966Z,26.44
2018-07-13T20:03:33.414Z,26.23
2018-07-13T20:06:57.894Z,26.24
2018-07-13T20:10:22.443Z,26.37
2018-07-13T20:13:46.872Z,25.99
2018-07-13T20:17:11.337Z,25.92
2018-07-13T20:20:35.730Z,26.07
2018-07-13T20:24:00.151Z,25.91
2018-07-13T20:27:24.586Z,25.58
2018-07-13T20:30:49.031Z,25.36
2018-07-13T20:34:13.633Z,25.60
2018-07-13T20:37:38.062Z,25.46
2018-07-13T20:41:02.489Z,25.46
2018-07-13T20:44:26.948Z,25.42
2018-07-13T20:47:51.422Z,25.33
2018-07-13T20:51:15.880Z,25.61
2018-07-13T20:54:40.312Z,25.65
2018-07-13T20:58:04.798Z,25.59
2018-07-13T21:01:29.236Z,25.62
2018-07-13T21:04:53.738Z,25.69
2018-07-13T21:08:18.200Z,25.78
2018-07-13T21:11:42.645Z,25.64
2018-07-13T21:15:07.136Z,25.46
2018-07-13T21:18:31.559Z,25.43
2018-07-13T21:21:55.999Z,25.14
2018-07-13T21:25:20.434Z,25.21
2018-07-13T21:28:44.854Z,25.10
2018-07-13T21:32:09.319Z,24.94
2018-07-13T21:35:33.723Z,24.93
2018-07-13T21:38:58.200Z,24.50
2018-07-13T21:42:22.648Z,24.65
2018-07-13T21:45:47.079Z,24.58
2018-07-13T21:49:11.555Z,24.43
2018-07-13T21:52:36.098Z,24.55
2018-07-13T21:56:00.558Z,24.23
2018-07-13T21:59:25.076Z,24.43
2018-07-13T22:02:49.567Z,24.48
2018-07-13T22:06:14.004Z,24.55
2018-07-13T22:09:38.449Z,24.50
2018-07-13T22:13:02.920Z,24.38
2018-07-13T22:16:27.399Z,24.29
2018-07-13T22:19:51.822Z,24.19
2018-07-13T22:23:16.361Z,24.30
2018-07-13T22:26:40.821Z,24.14
2018-07-13T22:30:05.693Z,24.23
2018-07-13T22:33:30.129Z,24.29
2018-07-13T22:36:54.628Z,24.19
2018-07-13T22:40:19.135Z,24.15
2018-07-13T22:43:43.514Z,24.13
2018-07-13T22:47:07.953Z,24.09
2018-07-13T22:50:32.370Z,24.05
2018-07-13T22:53:56.788Z,23.97
2018-07-13T22:57:21.224Z,23.68
2018-07-13T23:00:45.594Z,23.72
2018-07-13T23:04:10.039Z,23.77
2018-07-13T23:07:34.431Z,23.68
2018-07-13T23:10:59.513Z,23.66
2018-07-13T23:14:23.922Z,23.56
2018-07-13T23:17:48.334Z,23.56
2018-07-13T23:21:12.773Z,23.49
2018-07-13T23:24:37.212Z,23.46
2018-07-13T23:28:01.636Z,23.26
2018-07-13T23:31:26.067Z,23.21
2018-07-13T23:34:50.558Z,23.14
2018-07-13T23:38:15.059Z,23.12
2018-07-13T23:41:39.494Z,23.05
2018-07-13T23:45:03.951Z,23.06
2018-07-13T23:48:28.361Z,22.99
2018-07-13T23:51:52.783Z,22.93
2018-07-13T23:55:17.215Z,22.90
2018-07-13T23:58:41.732Z,22.80
